Time;durP1;ratioP1;P1;durP2;ratioP2;P2;SDS_P1;SDS_P2;PMS_P1;PMS_P2;Temp;Humidity;BMP_temperature;BMP_pressure;BME280_temperature;BME280_humidity;BME280_pressure;Samples;Min_cycle;Max_cycle;Signal;HPM_P1;HPM_P2
2023/11/16 00:00:07;;;;;;;;;;;;;;;13.55;57.06;99375.09;5073061;28;20312;-76
2023/11/16 00:02:34;;;;;;;;;;;;;;;13.55;56.93;99380.38;5091167;28;19912;-77
2023/11/16 00:05:02;;;;;;;;;;;;;;;13.55;56.76;99380.38;5091061;28;19912;-76
2023/11/16 00:07:27;;;;;;;;;;;;;;;13.52;56.76;99386.91;5091119;28;20065;-76
2023/11/16 00:09:52;;;;;;;;;;;;;;;13.56;56.76;99405.91;5075692;28;20413;-77
2023/11/16 00:12:18;;;;;;;;;;;;;;;13.56;56.80;99401.41;5094702;28;19919;-76
2023/11/16 00:14:43;;;;;;;;;;;;;;;13.52;57.00;99407.31;5076538;28;20372;-77
2023/11/16 00:17:08;;;;;;;;;;;;;;;13.52;56.15;99402.00;5076614;28;19999;-77
2023/11/16 00:19:37;;;;;;;;;;;;;;;13.51;56.27;99401.19;5094541;28;19916;-77
2023/11/16 00:22:03;;;;;;;;;;;;;;;13.54;55.98;99392.03;5094388;28;19943;-76
2023/11/16 00:24:29;;;;;;;;;;;;;;;13.53;56.02;99408.94;5094594;28;19991;-76
2023/11/16 00:26:55;;;;;;;;;;;;;;;13.57;55.68;99418.16;5094464;28;19991;-77
2023/11/16 00:29:20;;;;;;;;;;;;;;;13.54;55.36;99429.97;5093314;28;19963;-77
2023/11/16 00:31:46;;;;;;;;;;;;;;;13.54;55.45;99426.50;5094612;28;20412;-77
2023/11/16 00:34:11;;;;;;;;;;;;;;;13.50;54.84;99426.09;5094516;28;19950;-77
2023/11/16 00:36:37;;;;;;;;;;;;;;;13.55;55.34;99428.13;5076158;28;20396;-76
2023/11/16 00:39:03;;;;;;;;;;;;;;;13.61;55.16;99432.63;5075951;28;19924;-77
2023/11/16 00:41:29;;;;;;;;;;;;;;;13.59;54.88;99426.72;5094258;28;20454;-77
2023/11/16 00:43:54;;;;;;;;;;;;;;;13.59;54.89;99416.94;5094242;28;19912;-77
2023/11/16 00:46:21;;;;;;;;;;;;;;;13.57;54.50;99410.19;5094109;28;19965;-77
2023/11/16 00:48:47;;;;;;;;;;;;;;;13.56;54.61;99422.63;5094303;28;19954;-77
2023/11/16 00:51:37;;;;;;;;;;;;;;;13.60;54.46;99431.00;5094047;28;19912;-76
2023/11/16 00:54:03;;;;;;;;;;;;;;;13.58;54.05;99428.56;5094429;28;19998;-77
2023/11/16 00:56:28;;;;;;;;;;;;;;;13.63;53.67;99434.06;5093996;28;19943;-76
2023/11/16 00:58:55;;;;;;;;;;;;;;;13.58;54.33;99436.50;5093935;28;20361;-78
2023/11/16 01:01:22;;;;;;;;;;;;;;;13.58;54.20;99436.50;5092647;28;20298;-76
2023/11/16 01:03:49;;;;;;;;;;;;;;;13.56;54.10;99430.59;5093649;28;20010;-76
2023/11/16 01:06:14;;;;;;;;;;;;;;;13.48;54.27;99420.16;5093796;28;19973;-77
2023/11/16 01:08:39;;;;;;;;;;;;;;;13.50;54.27;99425.25;5093674;28;19947;-77
2023/11/16 01:11:30;;;;;;;;;;;;;;;13.45;54.65;99430.34;5092430;28;19919;-77
2023/11/16 01:13:56;;;;;;;;;;;;;;;13.48;54.52;99422.81;5093524;28;19965;-76
2023/11/16 01:16:30;;;;;;;;;;;;;;;13.46;54.35;99424.84;5093673;28;19912;-77
2023/11/16 01:18:56;;;;;;;;;;;;;;;13.49;54.59;99407.72;5093566;28;19916;-77
2023/11/16 01:21:21;;;;;;;;;;;;;;;13.46;54.18;99402.81;5091021;28;19919;-77
2023/11/16 01:23:47;;;;;;;;;;;;;;;13.42;54.56;99381.19;5093383;28;19912;-77
2023/11/16 01:26:17;;;;;;;;;;;;;;;13.44;54.32;99379.16;5093472;28;19973;-77
2023/11/16 01:28:58;;;;;;;;;;;;;;;13.44;54.52;99381.78;5093545;28;20046;-78
2023/11/16 01:31:24;;;;;;;;;;;;;;;13.43;54.20;99398.72;5093109;28;20436;-77
2023/11/16 01:33:50;;;;;;;;;;;;;;;13.47;54.29;99385.88;5093327;28;20309;-77
2023/11/16 01:36:18;;;;;;;;;;;;;;;13.46;54.48;99398.31;5093088;28;19919;-78
2023/11/16 01:38:46;;;;;;;;;;;;;;;13.43;54.38;99379.34;5093069;28;19916;-77
2023/11/16 01:41:14;;;;;;;;;;;;;;;13.42;54.29;99375.06;5093415;28;19912;-78
2023/11/16 01:43:40;;;;;;;;;;;;;;;13.38;54.24;99377.28;5093179;28;19919;-77
2023/11/16 01:46:06;;;;;;;;;;;;;;;13.36;54.19;99384.59;5092984;28;19912;-76
2023/11/16 01:48:36;;;;;;;;;;;;;;;13.33;54.37;99382.34;5093002;28;19989;-77
2023/11/16 01:51:05;;;;;;;;;;;;;;;13.28;54.51;99380.28;5092965;28;19959;-77
2023/11/16 01:53:35;;;;;;;;;;;;;;;13.24;54.69;99387.00;5093133;28;19916;-77
2023/11/16 01:56:02;;;;;;;;;;;;;;;13.21;54.36;99390.06;5092719;28;20309;-78
2023/11/16 01:58:28;;;;;;;;;;;;;;;13.20;54.54;99408.81;5092690;28;19970;-78
2023/11/16 02:00:53;;;;;;;;;;;;;;;13.18;54.59;99424.09;5074558;28;19948;-78
2023/11/16 02:03:19;;;;;;;;;;;;;;;13.19;54.77;99425.75;5092461;28;19942;-78
2023/11/16 02:05:45;;;;;;;;;;;;;;;13.18;54.68;99442.66;5092521;28;19919;-78
2023/11/16 02:08:11;;;;;;;;;;;;;;;13.16;54.80;99439.34;5092754;28;19912;-77
2023/11/16 02:10:37;;;;;;;;;;;;;;;13.18;54.46;99448.78;5092398;28;19960;-77
2023/11/16 02:13:03;;;;;;;;;;;;;;;13.07;54.77;99437.88;5092330;28;19912;-78
2023/11/16 02:15:31;;;;;;;;;;;;;;;13.07;54.97;99444.00;5092624;28;20441;-76
2023/11/16 02:17:57;;;;;;;;;;;;;;;13.08;54.92;99442.16;5092470;28;19919;-77
2023/11/16 02:20:25;;;;;;;;;;;;;;;13.10;54.95;99442.78;5091083;28;19913;-77
2023/11/16 02:22:54;;;;;;;;;;;;;;;13.07;54.61;99436.06;5092264;28;19947;-77
2023/11/16 02:25:19;;;;;;;;;;;;;;;13.01;54.64;99432.34;5092352;28;19918;-78
2023/11/16 02:27:45;;;;;;;;;;;;;;;13.04;55.03;99461.13;5092167;28;20002;-77
2023/11/16 02:30:11;;;;;;;;;;;;;;;12.98;54.82;99447.84;5092250;28;19916;-77
2023/11/16 02:32:36;;;;;;;;;;;;;;;12.99;54.75;99449.47;5091910;28;19912;-77
2023/11/16 02:35:02;;;;;;;;;;;;;;;12.97;54.86;99446.19;5092492;28;19916;-77
2023/11/16 02:37:28;;;;;;;;;;;;;;;13.02;54.94;99457.03;5092153;28;20363;-77
2023/11/16 02:39:53;;;;;;;;;;;;;;;12.95;54.89;99457.00;5091976;28;19922;-77
2023/11/16 02:42:19;;;;;;;;;;;;;;;12.88;54.83;99461.44;5092096;28;20376;-76
2023/11/16 02:44:45;;;;;;;;;;;;;;;12.95;54.92;99474.72;5091911;28;19973;-77
2023/11/16 02:47:11;;;;;;;;;;;;;;;12.97;54.58;99462.09;5091726;28;19912;-76
2023/11/16 02:49:37;;;;;;;;;;;;;;;12.95;54.87;99466.78;5090722;28;19938;-76
2023/11/16 02:52:02;;;;;;;;;;;;;;;12.93;54.57;99466.16;5073768;28;20437;-78
2023/11/16 02:54:27;;;;;;;;;;;;;;;12.93;54.71;99459.03;5091976;28;19987;-77
2023/11/16 02:56:53;;;;;;;;;;;;;;;12.94;54.85;99475.75;5091917;28;19916;-76
2023/11/16 02:59:18;;;;;;;;;;;;;;;12.87;54.48;99472.22;5091857;28;19916;-77
2023/11/16 03:01:44;;;;;;;;;;;;;;;12.82;54.91;99464.88;5091672;28;19912;-77
2023/11/16 03:04:10;;;;;;;;;;;;;;;12.77;54.63;99467.28;5091673;28;19966;-78
2023/11/16 03:06:36;;;;;;;;;;;;;;;12.80;54.86;99468.72;5091842;28;19912;-77
2023/11/16 03:09:04;;;;;;;;;;;;;;;12.77;54.60;99474.41;5091917;28;19983;-78
2023/11/16 03:11:30;;;;;;;;;;;;;;;12.79;54.74;99465.25;5091970;28;19943;-76
2023/11/16 03:13:55;;;;;;;;;;;;;;;12.80;54.58;99488.09;5091950;28;20459;-78
2023/11/16 03:16:21;;;;;;;;;;;;;;;12.77;54.61;99469.94;5091822;28;20396;-77
2023/11/16 03:18:46;;;;;;;;;;;;;;;12.77;54.86;99472.56;5091728;28;19916;-78
2023/11/16 03:21:12;;;;;;;;;;;;;;;12.78;54.63;99481.34;5091677;28;19916;-77
2023/11/16 03:23:37;;;;;;;;;;;;;;;12.77;54.56;99471.75;5092125;28;20367;-77
2023/11/16 03:26:04;;;;;;;;;;;;;;;12.79;54.32;99457.31;5091721;28;19916;-76
2023/11/16 03:28:29;;;;;;;;;;;;;;;12.78;54.17;99468.09;5091722;28;19919;-77
2023/11/16 03:30:54;;;;;;;;;;;;;;;12.79;54.10;99482.97;5091723;28;19912;-77
2023/11/16 03:33:20;;;;;;;;;;;;;;;12.76;53.94;99468.28;5091827;28;19912;-77
2023/11/16 03:35:48;;;;;;;;;;;;;;;12.75;54.47;99494.97;5091554;28;19912;-77
2023/11/16 03:38:15;;;;;;;;;;;;;;;12.71;53.79;99484.75;5091305;28;19939;-76
2023/11/16 03:40:41;;;;;;;;;;;;;;;12.62;53.33;99459.41;5091633;28;19912;-77
2023/11/16 03:43:07;;;;;;;;;;;;;;;12.70;53.85;99455.81;5091697;28;20305;-77
2023/11/16 03:45:32;;;;;;;;;;;;;;;12.62;53.60;99474.47;5095319;28;19923;-77
2023/11/16 03:47:57;;;;;;;;;;;;;;;12.59;53.16;99470.38;5095163;28;19912;-77
2023/11/16 03:50:23;;;;;;;;;;;;;;;12.60;52.68;99469.38;5095174;28;20002;-77
2023/11/16 03:52:49;;;;;;;;;;;;;;;12.59;52.45;99465.09;5095359;28;20007;-77
2023/11/16 03:55:14;;;;;;;;;;;;;;;12.61;52.98;99464.91;5095118;28;20002;-77
2023/11/16 03:57:40;;;;;;;;;;;;;;;12.71;52.87;99474.16;5095121;28;20377;-76
2023/11/16 04:00:07;;;;;;;;;;;;;;;12.69;52.34;99475.38;5095080;28;20402;-77
2023/11/16 04:02:32;;;;;;;;;;;;;;;12.61;51.75;99507.28;5095008;28;20297;-77
2023/11/16 04:04:58;;;;;;;;;;;;;;;12.66;51.49;99504.91;5095215;28;19920;-77
2023/11/16 04:07:23;;;;;;;;;;;;;;;12.67;51.42;99493.28;5076811;28;19972;-77
2023/11/16 04:09:51;;;;;;;;;;;;;;;12.71;51.68;99497.19;5093011;28;20397;-77
2023/11/16 04:12:16;;;;;;;;;;;;;;;12.67;51.34;99504.72;5094788;28;19912;-78
2023/11/16 04:14:43;;;;;;;;;;;;;;;12.59;51.06;99494.22;5094721;28;20033;-77
2023/11/16 04:17:13;;;;;;;;;;;;;;;12.66;51.76;99503.06;5094895;28;19916;-77
2023/11/16 04:19:39;;;;;;;;;;;;;;;12.67;51.76;99510.00;5094631;28;19919;-78
2023/11/16 04:22:07;;;;;;;;;;;;;;;12.70;51.40;99511.44;5094691;28;20047;-78
2023/11/16 04:24:36;;;;;;;;;;;;;;;12.66;50.59;99510.19;5076463;28;19912;-77
2023/11/16 04:27:05;;;;;;;;;;;;;;;12.68;50.74;99495.75;5094599;28;19912;-78
2023/11/16 04:29:32;;;;;;;;;;;;;;;12.67;50.59;99512.66;5094559;28;19965;-77
2023/11/16 04:31:57;;;;;;;;;;;;;;;12.70;50.83;99506.16;5094420;28;20392;-78
2023/11/16 04:34:23;;;;;;;;;;;;;;;12.65;50.25;99493.47;5094280;28;19927;-77
2023/11/16 04:36:48;;;;;;;;;;;;;;;12.65;50.24;99498.78;5094408;28;19960;-77
2023/11/16 04:39:14;;;;;;;;;;;;;;;12.67;50.51;99519.78;5094253;28;19916;-77
2023/11/16 04:41:42;;;;;;;;;;;;;;;12.63;50.29;99515.84;5092780;28;19920;-76
2023/11/16 04:44:08;;;;;;;;;;;;;;;12.67;50.36;99525.91;5094045;28;19912;-78
2023/11/16 04:46:33;;;;;;;;;;;;;;;12.66;50.19;99547.28;5094510;28;19912;-77
2023/11/16 04:48:59;;;;;;;;;;;;;;;12.68;50.54;99542.59;5094353;28;20365;-77
2023/11/16 04:51:24;;;;;;;;;;;;;;;12.66;50.22;99540.16;5093953;28;19912;-77
2023/11/16 04:53:50;;;;;;;;;;;;;;;12.66;49.70;99539.34;5093941;28;19916;-77
2023/11/16 04:56:16;;;;;;;;;;;;;;;12.65;50.10;99545.66;5093464;28;19969;-76
2023/11/16 04:58:42;;;;;;;;;;;;;;;12.68;50.27;99556.69;5093698;28;20354;-76
2023/11/16 05:01:07;;;;;;;;;;;;;;;12.66;50.40;99558.69;5093912;28;19912;-77
2023/11/16 05:03:33;;;;;;;;;;;;;;;12.59;50.03;99562.28;5093657;28;19920;-77
2023/11/16 05:05:59;;;;;;;;;;;;;;;12.61;49.85;99576.97;5093502;28;19916;-77
2023/11/16 05:08:25;;;;;;;;;;;;;;;12.62;50.22;99575.13;5093504;28;19999;-77
2023/11/16 05:10:52;;;;;;;;;;;;;;;12.64;50.23;99581.91;5093905;28;19919;-77
2023/11/16 05:13:19;;;;;;;;;;;;;;;12.61;50.13;99586.72;5094036;28;20405;-76
2023/11/16 05:15:47;;;;;;;;;;;;;;;12.61;50.09;99599.97;5092281;28;19960;-76
2023/11/16 05:18:13;;;;;;;;;;;;;;;12.63;50.03;99614.69;5075143;28;19955;-76
2023/11/16 05:20:39;;;;;;;;;;;;;;;12.68;50.26;99614.13;5093550;28;19944;-78
2023/11/16 05:23:04;;;;;;;;;;;;;;;12.67;50.04;99612.50;5092711;28;19912;-76
2023/11/16 05:25:29;;;;;;;;;;;;;;;12.67;50.70;99628.38;5092224;28;19916;-77
2023/11/16 05:27:55;;;;;;;;;;;;;;;12.57;50.86;99625.19;5075654;28;19912;-76
2023/11/16 05:30:20;;;;;;;;;;;;;;;12.59;50.35;99628.47;5092093;28;20012;-77
2023/11/16 05:32:46;;;;;;;;;;;;;;;12.61;50.81;99637.06;5093305;28;19904;-77
2023/11/16 05:35:12;;;;;;;;;;;;;;;12.62;50.40;99647.47;5093442;28;20351;-76
2023/11/16 05:37:37;;;;;;;;;;;;;;;12.63;51.03;99656.22;5093311;28;19911;-77
2023/11/16 05:40:05;;;;;;;;;;;;;;;12.68;51.03;99667.13;5093113;28;19916;-76
2023/11/16 05:42:30;;;;;;;;;;;;;;;12.68;50.88;99648.56;5075036;28;19912;-77
2023/11/16 05:44:55;;;;;;;;;;;;;;;12.69;50.92;99655.50;5093058;28;20006;-77
2023/11/16 05:47:21;;;;;;;;;;;;;;;12.62;50.70;99659.88;5092976;28;19913;-76
2023/11/16 05:49:47;;;;;;;;;;;;;;;12.59;50.97;99665.56;5093028;28;19920;-76
2023/11/16 05:52:13;;;;;;;;;;;;;;;12.52;50.97;99662.03;5092990;28;19912;-77
2023/11/16 05:54:38;;;;;;;;;;;;;;;12.60;51.02;99668.03;5087381;28;20417;-77
2023/11/16 05:57:03;;;;;;;;;;;;;;;12.64;50.79;99682.56;5092096;28;20324;-77
2023/11/16 05:59:28;;;;;;;;;;;;;;;12.66;50.94;99683.19;5092907;28;19916;-77
2023/11/16 06:01:54;;;;;;;;;;;;;;;12.61;50.59;99690.03;5092344;28;19926;-78
2023/11/16 06:04:22;;;;;;;;;;;;;;;12.61;50.38;99704.09;5090512;28;19924;-78
2023/11/16 06:06:48;;;;;;;;;;;;;;;12.56;50.54;99711.78;5090191;28;20421;-76
2023/11/16 06:09:14;;;;;;;;;;;;;;;12.60;50.58;99721.00;5085973;28;19923;-77
2023/11/16 06:11:40;;;;;;;;;;;;;;;12.66;50.16;99738.00;5074893;28;19917;-77
2023/11/16 06:14:08;;;;;;;;;;;;;;;12.63;50.63;99739.19;5092617;28;19912;-77
2023/11/16 06:16:33;;;;;;;;;;;;;;;12.68;50.60;99744.75;5092059;28;20316;-78
2023/11/16 06:18:59;;;;;;;;;;;;;;;12.77;50.97;99748.13;5092294;28;19916;-77
2023/11/16 06:21:24;;;;;;;;;;;;;;;12.76;50.57;99754.44;5076649;28;19921;-78
2023/11/16 06:23:49;;;;;;;;;;;;;;;12.86;50.53;99754.13;5075905;28;19916;-78
2023/11/16 06:26:15;;;;;;;;;;;;;;;12.86;50.63;99760.25;5092172;28;19965;-77
2023/11/16 06:28:40;;;;;;;;;;;;;;;12.94;50.74;99769.91;5091690;28;19908;-76
2023/11/16 06:31:05;;;;;;;;;;;;;;;12.96;50.84;99770.53;5071919;28;20022;-76
2023/11/16 06:33:31;;;;;;;;;;;;;;;13.00;50.14;99769.97;5071924;28;19951;-76
2023/11/16 06:35:56;;;;;;;;;;;;;;;12.95;50.04;99767.06;5077630;28;20302;-77
2023/11/16 06:38:22;;;;;;;;;;;;;;;13.03;50.17;99774.06;5091886;28;19916;-76
2023/11/16 06:40:48;;;;;;;;;;;;;;;12.99;49.87;99780.75;5089008;28;19928;-77
2023/11/16 06:43:13;;;;;;;;;;;;;;;13.07;49.92;99785.94;5090246;28;19921;-77
2023/11/16 06:45:40;;;;;;;;;;;;;;;13.01;49.73;99781.41;5072054;28;19916;-76
2023/11/16 06:48:09;;;;;;;;;;;;;;;13.12;49.94;99785.38;5071536;28;19916;-77
2023/11/16 06:50:36;;;;;;;;;;;;;;;13.10;49.72;99784.75;5073951;28;19968;-77
2023/11/16 06:53:05;;;;;;;;;;;;;;;13.18;49.52;99784.66;5091854;28;20373;-77
2023/11/16 06:55:32;;;;;;;;;;;;;;;13.25;49.67;99783.72;5077410;28;19916;-76
2023/11/16 06:57:57;;;;;;;;;;;;;;;13.28;48.97;99783.34;5077685;28;19916;-77
2023/11/16 07:00:23;;;;;;;;;;;;;;;13.31;49.17;99793.56;5071677;28;20348;-77
2023/11/16 07:02:48;;;;;;;;;;;;;;;13.31;49.62;99796.22;5053299;28;19928;-77
2023/11/16 07:05:14;;;;;;;;;;;;;;;13.33;49.19;99791.53;5071788;28;19913;-77
2023/11/16 07:07:39;;;;;;;;;;;;;;;13.33;48.19;99802.16;5074958;28;19916;-77
2023/11/16 07:10:06;;;;;;;;;;;;;;;13.35;48.50;99810.72;5091122;28;19916;-76
2023/11/16 07:12:32;;;;;;;;;;;;;;;13.30;48.63;99807.00;5073396;28;20450;-76
2023/11/16 07:14:57;;;;;;;;;;;;;;;13.38;48.17;99808.72;5091314;28;19994;-77
2023/11/16 07:17:24;;;;;;;;;;;;;;;13.43;47.91;99823.06;5091742;28;19920;-76
2023/11/16 07:19:49;;;;;;;;;;;;;;;13.46;48.08;99821.88;5081948;28;20015;-76
2023/11/16 07:22:18;;;;;;;;;;;;;;;13.50;47.28;99815.19;5058740;28;20086;-76
2023/11/16 07:24:44;;;;;;;;;;;;;;;13.56;48.33;99822.38;5075464;28;19924;-76
2023/11/16 07:27:09;;;;;;;;;;;;;;;13.61;48.04;99822.63;5074996;28;20382;-76
2023/11/16 07:29:35;;;;;;;;;;;;;;;13.57;47.45;99816.06;5073758;28;19912;-76
2023/11/16 07:32:00;;;;;;;;;;;;;;;13.65;47.68;99823.88;5075087;28;19954;-77
2023/11/16 07:34:26;;;;;;;;;;;;;;;13.68;47.38;99813.72;5075121;28;19999;-77
2023/11/16 07:36:51;;;;;;;;;;;;;;;13.69;47.41;99814.53;5073945;28;20427;-76
2023/11/16 07:39:17;;;;;;;;;;;;;;;13.72;47.27;99815.97;5080823;28;19951;-77
2023/11/16 07:41:44;;;;;;;;;;;;;;;13.79;47.79;99819.50;5084686;28;20320;-76
2023/11/16 07:44:10;;;;;;;;;;;;;;;13.82;47.55;99819.94;5078494;28;20405;-76
2023/11/16 07:46:35;;;;;;;;;;;;;;;13.84;47.29;99814.44;5094896;28;19923;-77
2023/11/16 07:49:00;;;;;;;;;;;;;;;13.82;46.63;99816.47;5095298;28;19999;-76
2023/11/16 07:51:26;;;;;;;;;;;;;;;13.89;47.26;99825.31;5093413;28;19964;-76
2023/11/16 07:53:57;;;;;;;;;;;;;;;13.89;45.87;99822.66;5077078;28;19908;-76
2023/11/16 07:56:22;;;;;;;;;;;;;;;13.92;45.74;99823.09;5095179;28;19937;-77
2023/11/16 07:58:52;;;;;;;;;;;;;;;14.00;46.14;99830.91;5067499;28;20007;-77
2023/11/16 08:01:21;;;;;;;;;;;;;;;14.04;46.54;99835.84;5075289;28;20401;-77
2023/11/16 08:03:55;;;;;;;;;;;;;;;14.12;46.56;99838.34;5074818;28;19927;-75
2023/11/16 08:06:22;;;;;;;;;;;;;;;14.14;45.95;99852.28;5080738;28;19960;-76
2023/11/16 08:08:49;;;;;;;;;;;;;;;14.15;44.85;99844.13;5094749;28;19927;-78
2023/11/16 08:11:14;;;;;;;;;;;;;;;14.19;45.93;99852.50;5091106;28;19957;-76
2023/11/16 08:13:45;;;;;;;;;;;;;;;14.20;45.61;99835.56;5075253;28;20443;-77
2023/11/16 08:16:12;;;;;;;;;;;;;;;14.23;45.79;99856.44;5074202;28;19919;-76
2023/11/16 08:18:38;;;;;;;;;;;;;;;14.29;45.52;99839.72;5074164;28;19947;-77
2023/11/16 08:21:06;;;;;;;;;;;;;;;14.31;45.24;99838.50;5074189;28;19913;-76
2023/11/16 08:23:38;;;;;;;;;;;;;;;14.36;45.54;99829.13;5074482;28;19942;-77
2023/11/16 08:26:05;;;;;;;;;;;;;;;14.39;44.73;99839.38;5080214;28;20010;-77
2023/11/16 08:28:31;;;;;;;;;;;;;;;14.38;43.77;99841.19;5094441;28;19912;-75
2023/11/16 08:30:58;;;;;;;;;;;;;;;14.46;44.37;99829.63;5093810;28;19919;-77
2023/11/16 08:33:25;;;;;;;;;;;;;;;14.50;44.31;99846.81;5077675;28;19909;-75
2023/11/16 08:35:51;;;;;;;;;;;;;;;14.54;43.68;99846.22;5073762;28;20428;-76
2023/11/16 08:38:16;;;;;;;;;;;;;;;14.54;43.07;99842.75;5074279;28;19932;-76
2023/11/16 08:40:44;;;;;;;;;;;;;;;14.53;43.22;99841.94;5085213;28;19912;-77
2023/11/16 08:43:12;;;;;;;;;;;;;;;14.59;43.77;99837.66;5055887;28;19919;-77
2023/11/16 08:45:39;;;;;;;;;;;;;;;14.65;43.48;99841.38;5072542;28;19951;-77
2023/11/16 08:48:06;;;;;;;;;;;;;;;14.68;42.06;99838.31;5073686;28;19919;-77
2023/11/16 08:50:33;;;;;;;;;;;;;;;14.74;42.66;99837.53;5074915;28;19952;-76
2023/11/16 08:53:00;;;;;;;;;;;;;;;14.79;42.56;99837.75;5074961;28;19974;-77
2023/11/16 08:55:26;;;;;;;;;;;;;;;14.84;42.17;99841.47;5073758;28;19952;-78
2023/11/16 08:57:51;;;;;;;;;;;;;;;14.92;42.20;99837.84;5085495;28;20304;-78
2023/11/16 09:00:37;;;;;;;;;;;;;;;15.02;43.55;99840.13;5093843;28;19916;-77
2023/11/16 09:03:04;;;;;;;;;;;;;;;15.08;42.72;99850.78;5089231;28;19932;-77
2023/11/16 09:05:31;;;;;;;;;;;;;;;15.14;42.83;99839.34;5073339;28;19913;-78
2023/11/16 09:07:59;;;;;;;;;;;;;;;15.15;41.96;99848.97;5073315;28;19913;-77
2023/11/16 09:10:24;;;;;;;;;;;;;;;15.20;41.20;99830.56;5073834;28;20309;-77
2023/11/16 09:12:55;;;;;;;;;;;;;;;15.29;43.13;99851.66;5075677;28;19912;-77
2023/11/16 09:15:22;;;;;;;;;;;;;;;15.28;40.92;99848.19;5090595;28;20474;-77
2023/11/16 09:17:48;;;;;;;;;;;;;;;15.33;41.75;99848.41;5073411;28;19919;-78
2023/11/16 09:20:18;;;;;;;;;;;;;;;15.31;42.09;99858.41;5073054;28;20320;-76
2023/11/16 09:22:43;;;;;;;;;;;;;;;15.39;41.90;99850.25;5071848;28;19913;-77
2023/11/16 09:25:15;;;;;;;;;;;;;;;15.38;41.38;99839.81;5073308;28;19916;-76
2023/11/16 09:27:41;;;;;;;;;;;;;;;15.38;41.23;99850.44;5073011;28;19919;-73
2023/11/16 09:30:07;;;;;;;;;;;;;;;15.38;40.40;99851.28;5072826;28;20404;-77
2023/11/16 09:32:33;;;;;;;;;;;;;;;15.46;41.88;99844.94;5072978;28;19916;-76
2023/11/16 09:34:59;;;;;;;;;;;;;;;15.55;40.91;99841.06;5084121;28;19987;-77
2023/11/16 09:37:27;;;;;;;;;;;;;;;15.65;40.92;99848.72;5073879;28;19912;-76
2023/11/16 09:39:54;;;;;;;;;;;;;;;15.68;39.42;99846.47;5073649;28;19925;-77
2023/11/16 09:42:24;;;;;;;;;;;;;;;15.81;40.99;99850.97;5073566;28;19916;-77
2023/11/16 09:44:53;;;;;;;;;;;;;;;15.83;40.17;99844.41;5072750;28;19920;-78
2023/11/16 09:47:25;;;;;;;;;;;;;;;15.86;40.91;99841.34;5072531;28;19913;-76
2023/11/16 09:49:55;;;;;;;;;;;;;;;15.92;39.79;99850.34;5073401;28;19920;-77
2023/11/16 09:52:21;;;;;;;;;;;;;;;15.92;39.42;99846.88;5072531;28;19999;-77
2023/11/16 09:54:48;;;;;;;;;;;;;;;15.98;39.62;99852.19;5073398;28;20012;-78
2023/11/16 09:57:19;;;;;;;;;;;;;;;15.98;39.59;99843.41;5081798;28;19919;-78
2023/11/16 09:59:45;;;;;;;;;;;;;;;16.06;40.12;99836.00;5072219;28;20397;-76
2023/11/16 10:02:15;;;;;;;;;;;;;;;16.16;40.99;99832.94;5090516;28;20385;-77
2023/11/16 10:04:44;;;;;;;;;;;;;;;16.22;39.87;99842.75;5092451;28;19981;-76
2023/11/16 10:07:15;;;;;;;;;;;;;;;16.21;39.66;99841.13;5074179;28;20440;-76
2023/11/16 10:09:44;;;;;;;;;;;;;;;16.21;40.11;99830.47;5082931;28;19916;-75
2023/11/16 10:12:09;;;;;;;;;;;;;;;16.26;38.86;99829.84;5088870;28;19912;-78
2023/11/16 10:14:50;;;;;;;;;;;;;;;16.28;39.82;99823.28;5072252;28;20355;-78
2023/11/16 10:17:16;;;;;;;;;;;;;;;16.35;39.42;99825.91;5076215;28;20302;-76
2023/11/16 10:19:41;;;;;;;;;;;;;;;16.36;39.77;99817.75;5085297;28;19923;-77
2023/11/16 10:22:07;;;;;;;;;;;;;;;16.39;38.50;99822.66;5092167;28;19912;-76
2023/11/16 10:24:33;;;;;;;;;;;;;;;16.38;37.60;99818.38;5077816;28;19923;-76
2023/11/16 10:26:59;;;;;;;;;;;;;;;16.40;38.54;99815.50;5083122;28;19916;-76
2023/11/16 10:29:24;;;;;;;;;;;;;;;16.45;39.56;99824.50;5076022;28;19917;-77
2023/11/16 10:31:51;;;;;;;;;;;;;;;16.45;39.28;99829.81;5087694;28;19916;-77
2023/11/16 10:34:26;;;;;;;;;;;;;;;16.49;38.25;99814.22;5084739;28;19916;-75
2023/11/16 10:36:55;;;;;;;;;;;;;;;16.56;37.27;99822.22;5082380;28;19999;-77
2023/11/16 10:39:22;;;;;;;;;;;;;;;16.56;37.48;99828.34;5078878;28;19920;-76
2023/11/16 10:41:49;;;;;;;;;;;;;;;16.47;37.02;99816.28;5078786;28;19916;-76
2023/11/16 10:44:15;;;;;;;;;;;;;;;16.49;37.83;99822.22;5091945;28;19981;-76
2023/11/16 10:46:43;;;;;;;;;;;;;;;16.39;36.68;99821.84;5091728;28;19919;-76
2023/11/16 10:49:09;;;;;;;;;;;;;;;16.42;36.70;99819.56;5091717;28;19912;-76
2023/11/16 10:51:36;;;;;;;;;;;;;;;16.39;38.09;99822.66;5075510;28;20014;-76
2023/11/16 10:54:03;;;;;;;;;;;;;;;16.42;38.21;99824.91;5071238;28;19913;-76
2023/11/16 10:56:30;;;;;;;;;;;;;;;16.41;37.23;99823.28;5070175;28;19912;-77
2023/11/16 10:58:57;;;;;;;;;;;;;;;16.45;38.25;99826.34;5075564;28;19920;-77
2023/11/16 11:01:24;;;;;;;;;;;;;;;16.40;38.63;99821.63;5085369;28;20003;-77
2023/11/16 11:03:51;;;;;;;;;;;;;;;16.37;36.69;99815.91;5087939;28;19977;-77
2023/11/16 11:06:18;;;;;;;;;;;;;;;16.39;37.76;99816.50;5081030;28;19916;-76
2023/11/16 11:08:44;;;;;;;;;;;;;;;16.39;37.90;99809.34;5073772;28;19917;-76
2023/11/16 11:11:12;;;;;;;;;;;;;;;16.39;37.70;99817.34;5091203;28;19994;-77
2023/11/16 11:13:39;;;;;;;;;;;;;;;16.39;38.04;99817.34;5090838;28;19969;-76
2023/11/16 11:16:05;;;;;;;;;;;;;;;16.41;37.34;99815.28;5082098;28;20347;-76
2023/11/16 11:18:31;;;;;;;;;;;;;;;16.40;37.32;99805.66;5080996;28;19922;-76
2023/11/16 11:21:09;;;;;;;;;;;;;;;16.39;38.02;99828.00;5065492;28;19916;-77
2023/11/16 11:23:37;;;;;;;;;;;;;;;16.42;38.44;99816.91;5091105;28;20448;-76
2023/11/16 11:26:03;;;;;;;;;;;;;;;16.42;37.36;99824.09;5071217;28;20400;-77
2023/11/16 11:28:29;;;;;;;;;;;;;;;16.39;37.67;99817.34;5060672;28;19912;-76
2023/11/16 11:30:58;;;;;;;;;;;;;;;16.39;36.39;99821.84;5074562;28;19916;-76
2023/11/16 11:33:33;;;;;;;;;;;;;;;16.38;36.83;99814.88;5057747;28;19916;-75
2023/11/16 11:35:59;;;;;;;;;;;;;;;16.39;36.75;99821.84;5084339;28;20416;-75
2023/11/16 11:38:27;;;;;;;;;;;;;;;16.40;36.66;99818.97;5090251;28;19927;-75
2023/11/16 11:40:55;;;;;;;;;;;;;;;16.45;37.90;99826.34;5071235;28;20003;-75
2023/11/16 11:43:21;;;;;;;;;;;;;;;16.43;36.88;99823.88;5078139;28;19912;-75
2023/11/16 11:45:47;;;;;;;;;;;;;;;16.44;37.05;99817.53;5080226;28;19920;-75
2023/11/16 11:48:13;;;;;;;;;;;;;;;16.47;38.08;99819.78;5082022;28;20411;-76
2023/11/16 11:50:38;;;;;;;;;;;;;;;16.46;37.78;99822.66;5071923;28;19963;-77
2023/11/16 11:53:06;;;;;;;;;;;;;;;16.48;37.87;99815.25;5071993;28;19916;-77
2023/11/16 11:55:31;;;;;;;;;;;;;;;16.43;37.51;99829.22;5071755;28;20070;-76
2023/11/16 11:57:56;;;;;;;;;;;;;;;16.41;36.32;99811.78;5070663;28;19913;-75
2023/11/16 12:00:22;;;;;;;;;;;;;;;16.44;36.87;99820.19;5089100;28;19983;-77
2023/11/16 12:02:49;;;;;;;;;;;;;;;16.47;37.68;99816.28;5081600;28;19937;-77
2023/11/16 12:05:15;;;;;;;;;;;;;;;16.46;36.74;99820.78;5076036;28;19920;-77
2023/11/16 12:07:40;;;;;;;;;;;;;;;16.48;37.26;99818.75;5084889;28;19912;-77
2023/11/16 12:10:06;;;;;;;;;;;;;;;16.46;37.17;99826.13;5085183;28;19924;-78
2023/11/16 12:12:35;;;;;;;;;;;;;;;16.46;37.61;99827.97;5092962;28;19983;-78
2023/11/16 12:15:02;;;;;;;;;;;;;;;16.44;37.72;99816.69;5084530;28;19931;-77
2023/11/16 12:17:27;;;;;;;;;;;;;;;16.44;38.21;99819.38;5082885;28;20362;-77
2023/11/16 12:19:53;;;;;;;;;;;;;;;16.41;36.74;99814.47;5074838;28;20003;-76
2023/11/16 12:22:20;;;;;;;;;;;;;;;16.45;37.93;99815.69;5085269;28;20289;-78
2023/11/16 12:24:46;;;;;;;;;;;;;;;16.44;37.23;99816.69;5089425;28;20012;-77
2023/11/16 12:27:15;;;;;;;;;;;;;;;16.44;37.29;99822.03;5080911;28;19923;-75
2023/11/16 12:29:51;;;;;;;;;;;;;;;16.46;38.32;99826.13;5080679;28;19959;-73
2023/11/16 12:32:17;;;;;;;;;;;;;;;16.45;37.60;99824.50;5076584;28;20385;-77
2023/11/16 12:34:42;;;;;;;;;;;;;;;16.41;36.34;99817.13;5077115;28;19922;-77
2023/11/16 12:37:08;;;;;;;;;;;;;;;16.42;37.83;99819.56;5074015;28;19948;-77
2023/11/16 12:39:33;;;;;;;;;;;;;;;16.44;36.99;99819.38;5073669;28;19923;-77
2023/11/16 12:42:06;;;;;;;;;;;;;;;16.46;37.42;99823.47;5076795;28;20372;-77
2023/11/16 12:44:32;;;;;;;;;;;;;;;16.46;36.95;99814.66;5056027;28;20350;-77